createdAt,value
2023-02-24T00:01:16.498Z,8.42
2023-02-24T00:03:42.797Z,8.01
2023-02-24T00:06:09.070Z,8.22
2023-02-24T00:08:35.333Z,8.11
2023-02-24T00:11:01.607Z,8.16
2023-02-24T00:13:27.857Z,7.89
2023-02-24T00:15:54.113Z,8.27
2023-02-24T00:18:20.360Z,8.69
2023-02-24T00:20:46.629Z,8.69
2023-02-24T00:23:12.875Z,9.25
2023-02-24T00:25:39.111Z,9.62
2023-02-24T00:28:05.358Z,9.77
2023-02-24T00:30:31.625Z,9.84
2023-02-24T00:32:57.918Z,10.42
2023-02-24T00:35:24.171Z,10.42
2023-02-24T00:37:50.429Z,10.27
2023-02-24T00:40:16.681Z,10.07
2023-02-24T00:42:42.928Z,9.17
2023-02-24T00:45:09.170Z,9.07
2023-02-24T00:47:35.405Z,8.39
2023-02-24T00:50:01.693Z,8.46
2023-02-24T00:52:27.977Z,8.30
2023-02-24T00:54:54.245Z,8.43
2023-02-24T00:57:20.530Z,9.03
2023-02-24T00:59:46.799Z,9.25
2023-02-24T01:02:13.058Z,9.68
2023-02-24T01:04:39.331Z,10.52
2023-02-24T01:07:05.582Z,10.07
2023-02-24T01:09:31.851Z,10.01
2023-02-24T01:11:58.164Z,10.41
2023-02-24T01:14:24.455Z,10.22
2023-02-24T01:16:50.712Z,10.04
2023-02-24T01:19:16.961Z,9.69
2023-02-24T01:21:43.205Z,9.59
2023-02-24T01:24:09.467Z,10.18
2023-02-24T01:26:35.730Z,9.90
2023-02-24T01:29:02.005Z,10.27
2023-02-24T01:31:28.363Z,10.78
2023-02-24T01:33:54.770Z,11.44
2023-02-24T01:36:21.062Z,11.47
2023-02-24T01:38:47.351Z,11.41
2023-02-24T01:41:13.593Z,10.61
2023-02-24T01:43:39.847Z,10.54
2023-02-24T01:46:06.145Z,10.94
2023-02-24T01:48:32.477Z,10.68
2023-02-24T01:50:58.754Z,10.73
2023-02-24T01:53:25.023Z,10.83
2023-02-24T01:55:51.291Z,11.35
2023-02-24T01:58:17.558Z,10.96
2023-02-24T02:00:43.913Z,11.16
2023-02-24T02:03:10.271Z,11.84
2023-02-24T02:05:36.514Z,11.76
2023-02-24T02:08:02.821Z,11.45
2023-02-24T02:10:29.103Z,11.88
2023-02-24T02:12:55.386Z,11.94
2023-02-24T02:15:21.644Z,11.66
2023-02-24T02:17:47.912Z,11.59
2023-02-24T02:20:14.165Z,11.85
2023-02-24T02:22:40.420Z,12.06
2023-02-24T02:25:06.682Z,11.51
2023-02-24T02:27:32.958Z,11.58
2023-02-24T02:29:59.229Z,11.50
2023-02-24T02:32:25.586Z,11.69
2023-02-24T02:34:51.895Z,11.68
2023-02-24T02:37:18.158Z,11.84
2023-02-24T02:39:44.436Z,12.47
2023-02-24T02:42:10.695Z,11.94
2023-02-24T02:44:36.940Z,10.31
2023-02-24T02:47:03.201Z,9.81
2023-02-24T02:49:29.447Z,9.76
2023-02-24T02:51:55.696Z,10.46
2023-02-24T02:54:21.963Z,10.38
2023-02-24T02:56:48.217Z,9.51
2023-02-24T02:59:14.462Z,10.02
2023-02-24T03:01:40.765Z,10.32
2023-02-24T03:04:07.038Z,11.02
2023-02-24T03:06:33.311Z,11.50
2023-02-24T03:08:59.562Z,11.29
2023-02-24T03:11:25.834Z,11.94
2023-02-24T03:13:52.110Z,11.45
2023-02-24T03:16:18.406Z,11.50
2023-02-24T03:18:44.672Z,11.28
2023-02-24T03:21:10.946Z,11.50
2023-02-24T03:23:37.190Z,11.22
2023-02-24T03:26:03.471Z,11.71
2023-02-24T03:28:29.737Z,11.36
2023-02-24T03:30:55.997Z,11.24
2023-02-24T03:33:22.288Z,12.05
2023-02-24T03:35:48.531Z,12.61
2023-02-24T03:38:14.797Z,11.78
2023-02-24T03:40:41.042Z,12.37
2023-02-24T03:43:07.301Z,12.66
2023-02-24T03:45:33.562Z,12.84
2023-02-24T03:47:59.835Z,12.98
2023-02-24T03:50:26.106Z,13.12
2023-02-24T03:52:52.379Z,13.84
2023-02-24T03:55:18.673Z,13.51
2023-02-24T03:57:44.950Z,13.84
2023-02-24T04:00:11.190Z,13.35
2023-02-24T04:02:37.474Z,13.60
2023-02-24T04:05:03.812Z,13.89
2023-02-24T04:07:30.124Z,14.03
2023-02-24T04:09:56.387Z,14.39
2023-02-24T04:12:22.682Z,14.15
2023-02-24T04:14:48.971Z,14.81
2023-02-24T04:17:15.231Z,15.45
2023-02-24T04:19:41.481Z,14.68
2023-02-24T04:22:07.764Z,15.73
2023-02-24T04:24:34.048Z,16.47
2023-02-24T04:27:00.316Z,16.82
2023-02-24T04:29:26.579Z,16.75
2023-02-24T04:31:53.037Z,17.16
2023-02-24T04:34:19.405Z,16.74
2023-02-24T04:36:45.673Z,16.84
2023-02-24T04:39:11.940Z,16.96
2023-02-24T04:41:38.197Z,16.65
2023-02-24T04:44:04.468Z,17.50
2023-02-24T04:46:30.753Z,18.16
2023-02-24T04:48:57.198Z,17.85
2023-02-24T04:51:23.629Z,17.60
2023-02-24T04:53:49.960Z,17.93
2023-02-24T04:56:16.211Z,18.07
2023-02-24T04:58:42.468Z,18.33
2023-02-24T05:01:08.739Z,19.04
2023-02-24T05:03:34.993Z,20.52
2023-02-24T05:06:01.322Z,19.00
2023-02-24T05:08:27.571Z,16.98
2023-02-24T05:10:53.851Z,17.94
2023-02-24T05:13:20.119Z,17.26
2023-02-24T05:15:46.440Z,17.71
2023-02-24T05:18:12.740Z,17.94
2023-02-24T05:20:39.022Z,17.36
2023-02-24T05:23:05.294Z,17.65
2023-02-24T05:25:31.579Z,15.99
2023-02-24T05:27:57.847Z,15.63
2023-02-24T05:30:24.139Z,16.31
2023-02-24T05:32:50.504Z,19.20
2023-02-24T05:35:16.800Z,21.47
2023-02-24T05:37:43.056Z,20.76
2023-02-24T05:40:09.361Z,21.11
2023-02-24T05:42:35.615Z,20.35
2023-02-24T05:45:01.876Z,18.68
2023-02-24T05:47:28.148Z,17.89
2023-02-24T05:49:54.410Z,19.67
2023-02-24T05:52:20.661Z,20.13
2023-02-24T05:54:46.928Z,21.02
2023-02-24T05:57:13.208Z,20.48
2023-02-24T05:59:39.473Z,18.61
2023-02-24T06:02:05.764Z,18.17
2023-02-24T06:04:32.092Z,18.19
2023-02-24T06:06:58.338Z,19.81
2023-02-24T06:09:24.603Z,23.44
2023-02-24T06:11:51.008Z,26.86
2023-02-24T06:14:17.290Z,24.63
2023-02-24T06:16:43.627Z,21.53
2023-02-24T06:19:09.992Z,21.22
2023-02-24T06:21:36.262Z,21.03
2023-02-24T06:24:02.550Z,20.27
2023-02-24T06:26:28.803Z,20.42
2023-02-24T06:28:55.058Z,18.64
2023-02-24T06:31:21.736Z,18.74
2023-02-24T06:33:48.190Z,20.70
2023-02-24T06:36:14.490Z,20.89
2023-02-24T06:38:40.772Z,19.39
2023-02-24T06:41:07.039Z,19.04
2023-02-24T06:43:33.315Z,16.64
2023-02-24T06:45:59.674Z,14.59
2023-02-24T06:48:25.942Z,17.01
2023-02-24T06:50:52.198Z,16.40
2023-02-24T06:53:18.480Z,15.93
2023-02-24T06:55:44.742Z,16.65
2023-02-24T06:58:11.006Z,16.16
2023-02-24T07:00:37.433Z,16.40
2023-02-24T07:03:03.722Z,15.47
2023-02-24T07:05:29.993Z,16.01
2023-02-24T07:07:56.249Z,16.71
2023-02-24T07:10:22.526Z,16.80
2023-02-24T07:12:48.794Z,17.27
2023-02-24T07:15:15.090Z,16.58
2023-02-24T07:17:41.342Z,17.59
2023-02-24T07:20:07.624Z,16.85
2023-02-24T07:22:33.884Z,16.81
2023-02-24T07:25:00.161Z,17.24
2023-02-24T07:27:26.429Z,18.22
2023-02-24T07:29:53.706Z,17.94
2023-02-24T07:32:20.159Z,17.67
2023-02-24T07:34:46.441Z,18.97
2023-02-24T07:37:12.719Z,18.63
2023-02-24T07:39:38.977Z,18.72
2023-02-24T07:42:05.267Z,19.02
2023-02-24T07:44:31.556Z,20.26
2023-02-24T07:46:57.814Z,20.31
2023-02-24T07:49:24.066Z,20.31
2023-02-24T07:51:50.324Z,19.80
2023-02-24T07:54:16.574Z,14.20
2023-02-24T07:56:42.851Z,15.61
2023-02-24T07:59:09.106Z,19.02
2023-02-24T08:01:35.354Z,20.24
2023-02-24T08:04:01.629Z,21.23
2023-02-24T08:06:27.903Z,21.57
2023-02-24T08:08:54.297Z,20.39
2023-02-24T08:11:20.854Z,20.71
2023-02-24T08:13:47.274Z,20.90
2023-02-24T08:16:13.580Z,20.20
2023-02-24T08:18:39.856Z,21.17
2023-02-24T08:21:06.130Z,21.18
2023-02-24T08:23:32.414Z,20.31
2023-02-24T08:25:58.704Z,20.80
2023-02-24T08:28:24.975Z,20.41
2023-02-24T08:30:51.331Z,21.59
2023-02-24T08:33:17.623Z,22.91
2023-02-24T08:35:43.893Z,23.44
2023-02-24T08:38:10.159Z,23.49
2023-02-24T08:40:36.413Z,25.33
2023-02-24T08:43:02.686Z,23.97
2023-02-24T08:45:28.932Z,24.36
2023-02-24T08:47:55.182Z,24.53
2023-02-24T08:50:21.442Z,24.30
2023-02-24T08:52:47.707Z,26.05
2023-02-24T08:55:13.954Z,25.16
2023-02-24T08:57:40.228Z,24.51
2023-02-24T09:00:06.490Z,23.21
2023-02-24T09:02:32.755Z,22.33
2023-02-24T09:04:59.105Z,23.83
2023-02-24T09:07:25.386Z,23.85
2023-02-24T09:09:51.645Z,25.23
2023-02-24T09:12:17.899Z,24.27
2023-02-24T09:14:44.166Z,23.89
2023-02-24T09:17:10.483Z,22.56
2023-02-24T09:19:36.756Z,23.53
2023-02-24T09:22:07.806Z,23.26
2023-02-24T09:24:36.554Z,23.26
2023-02-24T09:27:02.839Z,22.77
2023-02-24T09:29:29.122Z,24.20
2023-02-24T09:31:55.597Z,23.10
2023-02-24T09:34:22.049Z,23.05
2023-02-24T09:36:48.315Z,23.72
2023-02-24T09:39:14.737Z,22.16
2023-02-24T09:41:41.117Z,23.52
2023-02-24T09:44:07.691Z,22.07
2023-02-24T09:46:34.328Z,22.79
2023-02-24T09:49:00.711Z,22.87
2023-02-24T09:51:26.965Z,22.47
2023-02-24T09:53:53.222Z,22.97
2023-02-24T09:56:19.496Z,22.67
2023-02-24T09:58:45.804Z,22.55
2023-02-24T10:01:12.118Z,22.25
2023-02-24T10:03:38.414Z,21.81
2023-02-24T10:06:04.688Z,21.21
2023-02-24T10:08:30.981Z,19.04
2023-02-24T10:10:57.243Z,19.94
2023-02-24T10:13:23.536Z,20.20
2023-02-24T10:15:49.916Z,20.12
2023-02-24T10:18:16.190Z,19.57
2023-02-24T10:20:42.475Z,18.95
2023-02-24T10:23:08.767Z,19.69
2023-02-24T10:25:35.065Z,19.34
2023-02-24T10:28:01.342Z,19.28
2023-02-24T10:30:27.882Z,19.41
2023-02-24T10:32:54.380Z,19.98
2023-02-24T10:35:20.682Z,19.90
2023-02-24T10:37:46.967Z,18.98
2023-02-24T10:40:13.222Z,18.09
2023-02-24T10:42:39.522Z,18.93
2023-02-24T10:45:09.709Z,20.13
2023-02-24T10:47:36.222Z,19.53
2023-02-24T10:50:02.496Z,19.88
2023-02-24T10:52:28.782Z,20.44
2023-02-24T10:54:55.069Z,19.51
2023-02-24T10:57:21.327Z,18.21
2023-02-24T10:59:47.636Z,18.81
2023-02-24T11:02:13.968Z,18.55
2023-02-24T11:04:40.264Z,17.89
2023-02-24T11:07:06.533Z,17.26
2023-02-24T11:09:32.809Z,18.66
2023-02-24T11:11:59.103Z,23.23
2023-02-24T11:14:25.394Z,17.11
2023-02-24T11:16:51.679Z,15.87
2023-02-24T11:19:17.930Z,15.73
2023-02-24T11:21:44.197Z,15.51
2023-02-24T11:24:10.466Z,18.37
2023-02-24T11:26:36.732Z,15.77
2023-02-24T11:29:02.982Z,13.49
2023-02-24T11:31:29.327Z,13.58
2023-02-24T11:33:55.694Z,13.42
2023-02-24T11:36:21.965Z,13.34
2023-02-24T11:38:48.216Z,13.60
2023-02-24T11:41:14.471Z,13.80
2023-02-24T11:43:40.741Z,13.80
2023-02-24T11:46:07.321Z,13.68
2023-02-24T11:48:33.680Z,13.27
2023-02-24T11:50:59.948Z,13.19
2023-02-24T11:53:26.216Z,13.37
2023-02-24T11:55:52.469Z,12.74
2023-02-24T11:58:18.733Z,13.29
2023-02-24T12:00:46.921Z,12.89
2023-02-24T12:03:14.094Z,13.14
2023-02-24T12:05:40.410Z,12.95
2023-02-24T12:08:06.727Z,12.41
2023-02-24T12:10:33.097Z,12.35
2023-02-24T12:12:59.361Z,11.96
2023-02-24T12:15:25.629Z,12.29
2023-02-24T12:17:51.998Z,12.13
2023-02-24T12:20:18.339Z,10.95
2023-02-24T12:22:44.629Z,10.93
2023-02-24T12:25:10.894Z,10.76
2023-02-24T12:27:37.157Z,11.15
2023-02-24T12:30:03.431Z,10.89
2023-02-24T12:32:29.816Z,10.46
2023-02-24T12:34:56.156Z,10.33
2023-02-24T12:37:22.405Z,10.70
2023-02-24T12:39:48.666Z,10.68
2023-02-24T12:42:14.964Z,10.96
2023-02-24T12:44:41.228Z,11.10
2023-02-24T12:47:07.506Z,11.51
2023-02-24T12:49:33.763Z,12.03
2023-02-24T12:52:00.033Z,11.89
2023-02-24T12:54:26.285Z,12.47
2023-02-24T12:56:52.549Z,12.54
2023-02-24T12:59:18.837Z,12.76
2023-02-24T13:01:45.111Z,12.07
2023-02-24T13:04:11.379Z,12.24
2023-02-24T13:06:37.675Z,12.20
2023-02-24T13:09:03.927Z,12.56
2023-02-24T13:11:30.189Z,12.50
2023-02-24T13:13:56.482Z,15.13
2023-02-24T13:16:22.756Z,13.08
2023-02-24T13:18:49.027Z,14.14
2023-02-24T13:21:15.304Z,15.14
2023-02-24T13:23:41.576Z,13.80
2023-02-24T13:26:07.837Z,11.97
2023-02-24T13:28:34.103Z,11.55
2023-02-24T13:31:00.396Z,11.75
2023-02-24T13:33:26.689Z,10.77
2023-02-24T13:35:52.959Z,11.02
2023-02-24T13:38:19.223Z,10.24
2023-02-24T13:40:45.505Z,14.56
2023-02-24T13:43:11.771Z,10.00
2023-02-24T13:45:38.072Z,18.40
2023-02-24T13:48:04.344Z,15.87
2023-02-24T13:50:30.657Z,9.98
2023-02-24T13:52:56.922Z,11.07
2023-02-24T13:55:23.202Z,11.95
2023-02-24T13:57:49.488Z,12.87
2023-02-24T14:00:15.769Z,12.49
2023-02-24T14:02:42.072Z,11.30
2023-02-24T14:05:08.500Z,10.75
2023-02-24T14:07:34.810Z,16.99
2023-02-24T14:10:01.080Z,33.23
2023-02-24T14:12:27.374Z,15.60
2023-02-24T14:14:53.642Z,15.09
2023-02-24T14:17:19.890Z,14.10
2023-02-24T14:19:46.171Z,13.58
2023-02-24T14:22:13.237Z,13.77
2023-02-24T14:24:39.566Z,11.79
2023-02-24T14:27:05.846Z,11.76
2023-02-24T14:29:34.094Z,10.47
2023-02-24T14:32:02.821Z,11.08
2023-02-24T14:34:29.146Z,11.65
2023-02-24T14:36:55.409Z,11.97
2023-02-24T14:39:21.673Z,10.78
2023-02-24T14:41:47.939Z,8.82
2023-02-24T14:44:14.207Z,29.77
2023-02-24T14:46:40.513Z,20.11
2023-02-24T14:49:06.858Z,12.22
2023-02-24T14:51:33.128Z,11.90
2023-02-24T14:53:59.403Z,10.51
2023-02-24T14:56:25.763Z,9.24
2023-02-24T14:58:52.142Z,10.08
2023-02-24T15:01:18.462Z,10.19
2023-02-24T15:03:44.727Z,9.65
2023-02-24T15:06:10.989Z,10.21
2023-02-24T15:08:37.258Z,9.89
2023-02-24T15:11:03.510Z,9.58
2023-02-24T15:13:29.801Z,9.45
2023-02-24T15:15:56.194Z,10.19
2023-02-24T15:18:22.462Z,9.94
2023-02-24T15:20:48.730Z,9.97
2023-02-24T15:23:14.993Z,10.46
2023-02-24T15:25:43.012Z,10.57
2023-02-24T15:28:09.459Z,11.61
2023-02-24T15:30:35.769Z,10.60
2023-02-24T15:33:02.192Z,11.00
2023-02-24T15:35:28.494Z,10.72
2023-02-24T15:37:54.758Z,10.82
2023-02-24T15:40:21.030Z,11.82
2023-02-24T15:42:47.288Z,11.55
2023-02-24T15:45:13.558Z,11.28
2023-02-24T15:47:39.827Z,11.05
2023-02-24T15:50:06.076Z,10.58
2023-02-24T15:52:32.323Z,10.55
2023-02-24T15:54:58.602Z,10.15
2023-02-24T15:57:24.917Z,8.99
2023-02-24T15:59:51.196Z,8.87
2023-02-24T16:02:17.460Z,8.37
2023-02-24T16:04:43.725Z,8.36
2023-02-24T16:07:09.976Z,8.71
2023-02-24T16:09:36.251Z,8.21
2023-02-24T16:12:02.516Z,8.78
2023-02-24T16:14:28.798Z,8.38
2023-02-24T16:16:55.095Z,8.42
2023-02-24T16:19:21.353Z,9.14
2023-02-24T16:21:47.602Z,8.99
2023-02-24T16:24:14.180Z,9.29
2023-02-24T16:26:40.491Z,9.16
2023-02-24T16:29:06.753Z,9.76
2023-02-24T16:31:33.157Z,9.93
2023-02-24T16:33:59.741Z,10.29
2023-02-24T16:36:26.778Z,10.24
2023-02-24T16:38:53.294Z,10.84
2023-02-24T16:41:19.552Z,10.38
2023-02-24T16:43:45.866Z,10.98
2023-02-24T16:46:12.216Z,11.07
2023-02-24T16:48:38.583Z,10.79
2023-02-24T16:51:04.849Z,11.63
2023-02-24T16:53:31.128Z,11.68
2023-02-24T16:55:57.400Z,11.79
2023-02-24T16:58:23.682Z,12.13
2023-02-24T17:00:50.058Z,12.13
2023-02-24T17:03:16.482Z,11.96
2023-02-24T17:05:43.930Z,11.68
2023-02-24T17:08:10.586Z,11.93
2023-02-24T17:10:36.846Z,12.20
2023-02-24T17:13:03.107Z,12.09
2023-02-24T17:15:29.374Z,12.13
2023-02-24T17:17:55.665Z,12.23
2023-02-24T17:20:21.917Z,13.10
2023-02-24T17:22:48.162Z,13.29
2023-02-24T17:25:14.443Z,13.35
2023-02-24T17:27:40.748Z,13.05
2023-02-24T17:30:07.026Z,13.56
2023-02-24T17:32:33.341Z,12.20
2023-02-24T17:34:59.604Z,11.26
2023-02-24T17:37:25.874Z,11.54
2023-02-24T17:39:52.127Z,11.90
2023-02-24T17:42:18.394Z,12.43
2023-02-24T17:44:44.654Z,14.77
2023-02-24T17:47:10.907Z,14.36
2023-02-24T17:49:37.161Z,11.89
2023-02-24T17:52:06.124Z,11.05
2023-02-24T17:54:32.542Z,10.98
2023-02-24T17:56:58.814Z,11.24
2023-02-24T17:59:25.197Z,10.83
2023-02-24T18:01:51.485Z,11.46
2023-02-24T18:04:17.795Z,10.52
2023-02-24T18:06:44.050Z,9.41
2023-02-24T18:09:10.315Z,8.38
2023-02-24T18:11:36.572Z,7.68
2023-02-24T18:14:02.832Z,8.06
2023-02-24T18:16:29.141Z,7.76
2023-02-24T18:18:55.429Z,7.24
2023-02-24T18:21:21.686Z,6.83
2023-02-24T18:23:47.944Z,6.95
2023-02-24T18:26:14.213Z,7.03
2023-02-24T18:28:40.475Z,6.71
2023-02-24T18:31:06.832Z,6.43
2023-02-24T18:33:33.257Z,6.01
2023-02-24T18:35:59.547Z,5.96
2023-02-24T18:38:25.826Z,5.71
2023-02-24T18:40:52.090Z,5.66
2023-02-24T18:43:18.358Z,5.44
2023-02-24T18:45:44.629Z,5.77
2023-02-24T18:48:10.894Z,6.41
2023-02-24T18:50:37.167Z,6.08
2023-02-24T18:53:03.441Z,7.08
2023-02-24T18:55:29.703Z,7.17
2023-02-24T18:57:55.961Z,7.43
2023-02-24T19:00:22.218Z,7.19
2023-02-24T19:02:48.510Z,7.74
2023-02-24T19:05:14.794Z,8.27
2023-02-24T19:07:41.070Z,8.69
2023-02-24T19:10:07.355Z,8.33
2023-02-24T19:12:33.684Z,8.66
2023-02-24T19:14:59.927Z,8.22
2023-02-24T19:17:26.187Z,8.13
2023-02-24T19:19:52.458Z,9.07
2023-02-24T19:22:18.706Z,9.64
2023-02-24T19:24:44.975Z,10.55
2023-02-24T19:27:11.244Z,10.40
2023-02-24T19:29:37.486Z,9.90
2023-02-24T19:32:03.820Z,9.52
2023-02-24T19:34:30.152Z,9.11
2023-02-24T19:36:56.394Z,8.53
2023-02-24T19:39:22.658Z,7.37
2023-02-24T19:41:49.900Z,6.32
2023-02-24T19:44:16.344Z,5.94
2023-02-24T19:46:42.590Z,5.56
2023-02-24T19:49:08.835Z,5.21
2023-02-24T19:51:35.109Z,4.79
2023-02-24T19:54:01.353Z,4.64
2023-02-24T19:56:27.656Z,4.37
2023-02-24T19:58:53.918Z,4.33
2023-02-24T20:01:20.173Z,4.37
2023-02-24T20:03:46.474Z,4.27
2023-02-24T20:06:12.724Z,3.84
2023-02-24T20:08:38.976Z,3.52
2023-02-24T20:11:05.229Z,3.61
2023-02-24T20:13:31.490Z,3.46
2023-02-24T20:15:57.732Z,3.43
2023-02-24T20:18:24.164Z,3.48
2023-02-24T20:20:50.444Z,3.19
2023-02-24T20:23:16.702Z,3.38
2023-02-24T20:25:43.042Z,3.67
2023-02-24T20:28:09.299Z,3.71
2023-02-24T20:30:35.574Z,3.78
2023-02-24T20:33:01.875Z,4.00
2023-02-24T20:35:28.158Z,4.04
2023-02-24T20:37:54.427Z,3.57
2023-02-24T20:40:20.697Z,2.85
2023-02-24T20:42:46.956Z,2.74
2023-02-24T20:45:13.211Z,2.40
2023-02-24T20:47:39.472Z,2.13
2023-02-24T20:50:05.759Z,2.00
2023-02-24T20:52:32.032Z,1.97
2023-02-24T20:54:58.297Z,1.79
2023-02-24T20:57:24.569Z,1.98
2023-02-24T21:00:02.845Z,1.86
2023-02-24T21:02:29.662Z,2.09
2023-02-24T21:04:55.988Z,1.98
2023-02-24T21:07:22.261Z,1.84
2023-02-24T21:09:48.587Z,2.04
2023-02-24T21:12:14.877Z,2.15
2023-02-24T21:14:41.153Z,1.82
2023-02-24T21:17:07.393Z,2.08
2023-02-24T21:19:33.656Z,2.09
2023-02-24T21:21:59.922Z,1.92
2023-02-24T21:24:26.187Z,2.01
2023-02-24T21:26:52.433Z,2.06
2023-02-24T21:29:18.682Z,2.13
2023-02-24T21:31:45.132Z,2.42
2023-02-24T21:34:11.474Z,2.17
2023-02-24T21:36:37.742Z,2.28
2023-02-24T21:39:04.017Z,2.24
2023-02-24T21:41:30.298Z,2.28
2023-02-24T21:43:56.583Z,1.94
2023-02-24T21:46:23.192Z,1.81
2023-02-24T21:48:49.634Z,2.08
2023-02-24T21:51:15.877Z,1.94
2023-02-24T21:53:42.160Z,1.99
2023-02-24T21:56:08.433Z,1.86
2023-02-24T21:58:34.695Z,1.96
2023-02-24T22:01:00.932Z,1.94
2023-02-24T22:03:27.258Z,1.90
2023-02-24T22:05:53.545Z,1.97
2023-02-24T22:08:19.825Z,1.76
2023-02-24T22:10:46.089Z,1.87
2023-02-24T22:13:12.341Z,1.93
2023-02-24T22:15:38.602Z,1.82
2023-02-24T22:18:04.870Z,2.03
2023-02-24T22:20:31.115Z,2.17
2023-02-24T22:22:57.394Z,2.23
2023-02-24T22:25:23.634Z,2.23
2023-02-24T22:27:49.946Z,2.39
2023-02-24T22:30:16.205Z,2.50
2023-02-24T22:32:42.517Z,2.69
2023-02-24T22:35:08.818Z,2.67
2023-02-24T22:37:35.163Z,2.50
2023-02-24T22:40:01.452Z,2.42
2023-02-24T22:42:27.722Z,2.56
2023-02-24T22:44:53.998Z,2.71
2023-02-24T22:47:20.242Z,2.72
2023-02-24T22:49:46.483Z,2.82
2023-02-24T22:52:12.760Z,2.68
2023-02-24T22:54:39.038Z,2.87
2023-02-24T22:57:05.340Z,2.74
2023-02-24T22:59:31.597Z,2.93
2023-02-24T23:01:57.906Z,2.79
2023-02-24T23:04:24.180Z,2.96
2023-02-24T23:06:50.485Z,2.84
2023-02-24T23:09:16.962Z,3.09
2023-02-24T23:11:43.236Z,2.69
2023-02-24T23:14:09.485Z,2.29
2023-02-24T23:16:35.810Z,2.51
2023-02-24T23:19:02.074Z,2.16
2023-02-24T23:21:28.334Z,2.58
2023-02-24T23:23:54.575Z,2.42
2023-02-24T23:26:21.317Z,2.63
2023-02-24T23:28:47.704Z,2.58
2023-02-24T23:31:14.072Z,2.41
2023-02-24T23:33:40.366Z,2.61
2023-02-24T23:36:06.636Z,2.62
2023-02-24T23:38:32.880Z,2.36
2023-02-24T23:40:59.159Z,2.57
2023-02-24T23:43:25.414Z,2.70
2023-02-24T23:45:51.750Z,2.49
2023-02-24T23:48:18.037Z,2.39
2023-02-24T23:50:44.293Z,2.33
2023-02-24T23:53:10.577Z,2.47
2023-02-24T23:55:36.876Z,2.81
2023-02-24T23:58:03.160Z,2.95
